Time;durP1;ratioP1;P1;durP2;ratioP2;P2;SDS_P1;SDS_P2;PMS_P1;PMS_P2;Temp;Humidity;BMP_temperature;BMP_pressure;BME280_temperature;BME280_humidity;BME280_pressure;Samples;Min_cycle;Max_cycle;Signal;HPM_P1;HPM_P2
2022/12/01 00:00:38;;;;;;;31.98;11.57;;;5.00;99.90;;;;;;5068993;28;20853;-58
2022/12/01 00:03:04;;;;;;;29.53;12.23;;;5.10;99.90;;;;;;5050103;28;20873;-58
2022/12/01 00:05:30;;;;;;;30.90;12.33;;;5.10;34.10;;;;;;5069020;28;20440;-58
2022/12/01 00:07:58;;;;;;;26.47;10.70;;;5.70;9.80;;;;;;5067978;28;20484;-61
2022/12/01 00:10:27;;;;;;;24.80;10.60;;;5.00;1.00;;;;;;5068981;28;20386;-58
2022/12/01 00:12:54;;;;;;;26.45;11.30;;;5.10;1.00;;;;;;5067750;28;20387;-61
2022/12/01 00:15:21;;;;;;;26.38;11.32;;;5.10;1.00;;;;;;5068664;28;20737;-58
2022/12/01 00:17:47;;;;;;;27.02;11.20;;;5.10;1.00;;;;;;5067746;28;20875;-59
2022/12/01 00:20:14;;;;;;;26.08;11.02;;;5.10;1.00;;;;;;5068683;28;20482;-58
2022/12/01 00:22:47;;;;;;;25.00;10.07;;;5.20;1.00;;;;;;5068598;28;20853;-64
2022/12/01 00:25:15;;;;;;;30.90;12.43;;;5.20;1.00;;;;;;5072469;28;20427;-59
2022/12/01 00:27:41;;;;;;;21.77;10.55;;;5.20;1.00;;;;;;5065792;28;20392;-63
2022/12/01 00:30:09;;;;;;;24.17;10.13;;;5.30;99.90;;;;;;5062954;28;20473;-58
2022/12/01 00:32:35;;;;;;;27.48;11.80;;;5.30;99.90;;;;;;5052073;28;20404;-59
2022/12/01 00:35:01;;;;;;;30.35;11.45;;;5.30;99.90;;;;;;5055493;28;20726;-59
2022/12/01 00:37:29;;;;;;;27.05;11.40;;;5.20;99.90;;;;;;5071588;28;20415;-58
2022/12/01 00:39:55;;;;;;;27.10;11.82;;;5.10;99.90;;;;;;5071147;28;20841;-59
2022/12/01 00:42:20;;;;;;;32.03;11.32;;;5.40;99.90;;;;;;5071975;28;20470;-59
2022/12/01 00:44:46;;;;;;;28.23;10.40;;;5.10;99.90;;;;;;5071131;28;20408;-58
2022/12/01 00:47:13;;;;;;;29.23;12.02;;;5.00;99.90;;;;;;5071005;28;20450;-58
2022/12/01 00:49:38;;;;;;;23.73;10.13;;;6.50;99.90;;;;;;5061160;28;20502;-58
2022/12/01 00:52:04;;;;;;;25.90;10.48;;;5.20;99.90;;;;;;5067464;28;20447;-58
2022/12/01 00:54:32;;;;;;;23.60;10.53;;;4.90;99.90;;;;;;5058230;28;20380;-58
2022/12/01 00:56:58;;;;;;;25.70;9.52;;;5.00;99.90;;;;;;5070890;28;20383;-58
2022/12/01 00:59:24;;;;;;;29.55;12.05;;;5.00;99.90;;;;;;5071756;28;20385;-58
2022/12/01 01:01:50;;;;;;;23.77;9.45;;;5.00;99.90;;;;;;5071054;28;20513;-58
2022/12/01 01:04:16;;;;;;;24.45;10.30;;;4.90;99.90;;;;;;5072070;28;20462;-58
2022/12/01 01:06:44;;;;;;;26.33;10.88;;;4.80;99.90;;;;;;5071513;28;20733;-64
2022/12/01 01:09:11;;;;;;;29.70;10.85;;;4.80;99.90;;;;;;5071626;28;20401;-61
2022/12/01 01:11:37;;;;;;;23.95;10.57;;;5.10;99.90;;;;;;5071924;28;20371;-58
2022/12/01 01:14:03;;;;;;;28.93;11.00;;;6.10;99.90;;;;;;5070491;28;20383;-59
2022/12/01 01:16:28;;;;;;;25.27;10.00;;;4.90;99.90;;;;;;5071954;28;20415;-58
2022/12/01 01:18:54;;;;;;;27.13;11.18;;;6.50;99.90;;;;;;5070615;28;20407;-59
2022/12/01 01:21:21;;;;;;;26.45;10.55;;;4.90;99.90;;;;;;5071205;28;20419;-58
2022/12/01 01:23:48;;;;;;;24.55;9.75;;;4.90;99.90;;;;;;5070616;28;20371;-58
2022/12/01 01:26:21;;;;;;;25.55;10.40;;;5.00;99.90;;;;;;5070943;28;20391;-58
2022/12/01 01:28:49;;;;;;;23.83;10.43;;;4.90;99.90;;;;;;5070494;28;20411;-59
2022/12/01 01:31:17;;;;;;;29.75;12.25;;;4.90;99.90;;;;;;5070843;28;20788;-58
2022/12/01 01:33:43;;;;;;;24.52;10.55;;;5.40;99.90;;;;;;5070872;28;20484;-63
2022/12/01 01:36:09;;;;;;;24.40;10.10;;;4.90;99.90;;;;;;5069764;28;20399;-59
2022/12/01 01:38:35;;;;;;;22.87;9.30;;;4.90;93.60;;;;;;5070767;28;20449;-59
2022/12/01 01:41:02;;;;;;;27.70;10.47;;;5.80;99.90;;;;;;5070414;28;20852;-59
2022/12/01 01:43:39;;;;;;;31.15;11.55;;;4.40;99.90;;;;;;5070881;28;20437;-59
2022/12/01 01:46:05;;;;;;;25.67;10.50;;;4.40;99.90;;;;;;5069888;28;20415;-59
2022/12/01 01:48:33;;;;;;;21.08;9.05;;;4.50;99.90;;;;;;5070783;28;20387;-59
2022/12/01 01:50:59;;;;;;;22.15;9.40;;;5.20;99.90;;;;;;5070300;28;20379;-58
2022/12/01 01:53:25;;;;;;;30.15;11.05;;;4.20;99.90;;;;;;5070531;28;20425;-59
2022/12/01 01:55:51;;;;;;;23.40;9.73;;;4.30;99.90;;;;;;5070275;28;20860;-59
2022/12/01 01:58:18;;;;;;;26.10;10.27;;;5.50;99.90;;;;;;5070363;28;20403;-58
2022/12/01 02:00:44;;;;;;;23.98;9.60;;;4.50;99.90;;;;;;5070197;28;20392;-63
2022/12/01 02:03:14;;;;;;;26.85;10.95;;;4.60;99.90;;;;;;5070242;28;20383;-58
2022/12/01 02:05:41;;;;;;;24.98;10.38;;;5.40;99.90;;;;;;5070649;28;20379;-59
2022/12/01 02:08:11;;;;;;;25.25;10.40;;;5.80;99.90;;;;;;5069587;28;21109;-59
2022/12/01 02:11:11;;;;;;;28.88;10.30;;;4.60;99.90;;;;;;5070307;28;20463;-59
2022/12/01 02:14:07;;;;;;;24.57;10.23;;;4.50;99.90;;;;;;5070454;28;20391;-59
2022/12/01 02:17:01;;;;;;;22.93;10.43;;;4.50;99.90;;;;;;5069599;28;20974;-59
2022/12/01 02:19:51;;;;;;;24.38;9.20;;;4.50;99.90;;;;;;5070852;28;20384;-59
2022/12/01 02:22:40;;;;;;;21.25;9.07;;;6.30;99.90;;;;;;5070537;28;20392;-59
2022/12/01 02:25:06;;;;;;;20.67;8.18;;;4.90;99.90;;;;;;5069351;28;21373;-60
2022/12/01 02:27:58;;;;;;;24.00;9.52;;;4.50;99.90;;;;;;5068312;28;20438;-58
2022/12/01 02:30:44;;;;;;;24.45;10.25;;;4.40;99.90;;;;;;5059500;28;20377;-59
2022/12/01 02:33:41;;;;;;;21.73;8.60;;;4.50;99.90;;;;;;5049816;28;20970;-59
2022/12/01 02:36:06;;;;;;;24.45;8.68;;;4.60;52.40;;;;;;5040841;28;20478;-60
2022/12/01 02:38:46;;;;;;;22.83;9.52;;;6.20;8.20;;;;;;5050105;28;20500;-59
2022/12/01 02:41:19;;;;;;;23.30;9.43;;;5.80;1.00;;;;;;5050366;28;20464;-59
2022/12/01 02:43:53;;;;;;;22.63;8.27;;;4.90;1.00;;;;;;5049590;28;20389;-64
2022/12/01 02:46:47;;;;;;;20.35;7.88;;;4.60;1.00;;;;;;5049930;28;20392;-59
2022/12/01 02:49:17;;;;;;;19.00;8.25;;;4.50;1.00;;;;;;5038781;28;20492;-58
2022/12/01 02:51:44;;;;;;;18.67;7.55;;;4.60;1.00;;;;;;5049383;28;20758;-65
2022/12/01 02:54:12;;;;;;;23.33;9.68;;;4.60;1.00;;;;;;5049430;28;20390;-59
2022/12/01 02:56:37;;;;;;;20.63;8.43;;;4.60;1.00;;;;;;5049904;28;20381;-59
2022/12/01 02:59:13;;;;;;;23.48;8.60;;;4.60;1.00;;;;;;5048949;28;20463;-59
2022/12/01 03:02:12;;;;;;;22.95;8.50;;;5.20;1.00;;;;;;5050291;28;20390;-59
2022/12/01 03:05:04;;;;;;;21.00;8.20;;;4.50;1.00;;;;;;5059517;28;20791;-60
2022/12/01 03:07:42;;;;;;;25.57;8.90;;;4.60;1.00;;;;;;5046397;28;20494;-59
2022/12/01 03:10:29;;;;;;;22.80;7.97;;;6.20;1.00;;;;;;5049077;28;20408;-59
2022/12/01 03:13:15;;;;;;;17.92;7.82;;;4.40;1.00;;;;;;5048872;28;20381;-59
2022/12/01 03:15:59;;;;;;;23.30;8.70;;;4.30;1.00;;;;;;5049736;28;20482;-58
2022/12/01 03:18:38;;;;;;;24.40;8.20;;;4.30;1.00;;;;;;5049564;28;20423;-59
2022/12/01 03:21:13;;;;;;;23.02;8.95;;;4.20;1.00;;;;;;5048818;28;20428;-59
2022/12/01 03:23:49;;;;;;;20.57;9.00;;;4.30;1.00;;;;;;5049574;28;20389;-59
2022/12/01 03:26:19;;;;;;;26.05;8.68;;;4.30;1.00;;;;;;5049664;28;20460;-59
2022/12/01 03:28:55;;;;;;;20.13;8.07;;;4.20;1.00;;;;;;5049107;28;20428;-65
2022/12/01 03:31:26;;;;;;;22.75;8.68;;;4.10;1.00;;;;;;5049656;28;20377;-59
2022/12/01 03:34:03;;;;;;;21.05;8.95;;;4.20;1.00;;;;;;5048430;28;20464;-59
2022/12/01 03:36:50;;;;;;;23.50;9.40;;;4.90;1.00;;;;;;5049485;28;20752;-60
2022/12/01 03:39:21;;;;;;;22.17;8.50;;;4.30;1.00;;;;;;5049300;28;20412;-59
2022/12/01 03:41:53;;;;;;;20.67;8.43;;;6.20;1.00;;;;;;5049096;28;20863;-64
2022/12/01 03:44:30;;;;;;;20.85;8.02;;;4.50;1.00;;;;;;5049458;28;20402;-60
2022/12/01 03:47:00;;;;;;;21.45;8.20;;;4.40;1.00;;;;;;5050407;28;20373;-59
2022/12/01 03:49:27;;;;;;;25.77;10.63;;;4.40;1.00;;;;;;5069270;28;20376;-59
2022/12/01 03:52:13;;;;;;;22.20;8.80;;;4.40;1.00;;;;;;5050604;28;20494;-60
2022/12/01 03:54:46;;;;;;;21.37;9.30;;;4.40;1.00;;;;;;5069368;28;20375;-58
2022/12/01 03:57:22;;;;;;;26.15;9.52;;;2.70;1.00;;;;;;5068535;28;20392;-59
2022/12/01 03:59:48;;;;;;;24.42;9.25;;;5.90;1.00;;;;;;5054130;28;20805;-64
2022/12/01 04:02:14;;;;;;;21.13;9.30;;;4.60;1.00;;;;;;5073018;28;20433;-59
2022/12/01 04:04:40;;;;;;;23.38;9.13;;;5.90;1.00;;;;;;5072938;28;20395;-59
2022/12/01 04:07:06;;;;;;;25.20;9.88;;;5.50;1.00;;;;;;5072037;28;20384;-59
2022/12/01 04:09:32;;;;;;;24.20;9.07;;;4.60;1.00;;;;;;5072637;28;20393;-58
2022/12/01 04:14:41;;;;;;;28.92;10.80;;;5.60;1.00;;;;;;5072775;28;20367;-60
2022/12/01 04:17:07;;;;;;;25.50;9.47;;;5.70;1.00;;;;;;5071962;28;20383;-59
2022/12/01 04:19:32;;;;;;;25.60;10.05;;;5.80;1.00;;;;;;5072972;28;20920;-59
2022/12/01 04:21:58;;;;;;;26.13;9.67;;;4.20;1.00;;;;;;5072022;28;20494;-59
2022/12/01 04:24:24;;;;;;;21.88;9.60;;;5.70;1.00;;;;;;5054564;28;20406;-59
2022/12/01 04:26:49;;;;;;;26.40;8.73;;;4.30;1.00;;;;;;5071505;28;20479;-61
2022/12/01 04:29:15;;;;;;;23.50;9.23;;;4.40;1.00;;;;;;5072679;28;20372;-59
2022/12/01 04:31:40;;;;;;;19.33;8.27;;;4.40;1.00;;;;;;5071713;28;20921;-59
2022/12/01 04:34:08;;;;;;;26.70;9.90;;;5.60;1.00;;;;;;5071314;28;20396;-59
2022/12/01 04:36:34;;;;;;;23.27;9.52;;;4.50;1.00;;;;;;5072638;28;20400;-59
2022/12/01 04:39:01;;;;;;;24.85;10.48;;;4.60;1.00;;;;;;5071489;28;20861;-59
2022/12/01 04:41:27;;;;;;;26.45;10.38;;;4.70;1.00;;;;;;5071729;28;20935;-58
2022/12/01 04:43:53;;;;;;;24.13;9.40;;;4.70;1.00;;;;;;5071689;28;20841;-59
2022/12/01 04:46:19;;;;;;;24.17;10.05;;;4.60;1.00;;;;;;5072273;28;20503;-59
2022/12/01 04:48:45;;;;;;;26.17;10.50;;;5.30;1.00;;;;;;5072032;28;20867;-64
2022/12/01 04:51:11;;;;;;;23.40;9.07;;;4.50;1.00;;;;;;5069126;28;20487;-58
2022/12/01 04:53:37;;;;;;;21.63;9.40;;;4.60;1.00;;;;;;5068136;28;20376;-59
2022/12/01 04:56:03;;;;;;;22.38;9.52;;;4.50;1.00;;;;;;5070941;28;20394;-60
2022/12/01 04:58:30;;;;;;;23.27;9.07;;;4.50;1.00;;;;;;5071573;28;20461;-59
2022/12/01 05:01:03;;;;;;;25.63;10.00;;;4.50;1.00;;;;;;5068602;28;20400;-59
2022/12/01 05:03:29;;;;;;;23.23;9.55;;;4.60;1.00;;;;;;5071212;28;20529;-58
2022/12/01 05:06:06;;;;;;;27.70;9.90;;;4.60;1.00;;;;;;5070701;28;20463;-58
2022/12/01 05:08:33;;;;;;;24.80;10.10;;;4.60;1.00;;;;;;5069169;28;20394;-59
2022/12/01 05:10:58;;;;;;;22.08;10.13;;;4.70;1.00;;;;;;5063599;28;20404;-61
2022/12/01 05:13:24;;;;;;;27.20;10.00;;;4.60;1.00;;;;;;5071235;28;20741;-58
2022/12/01 05:15:50;;;;;;;24.50;10.37;;;5.70;1.00;;;;;;5070672;28;20473;-59
2022/12/01 05:18:15;;;;;;;23.15;9.30;;;4.50;1.00;;;;;;5071680;28;20838;-58
2022/12/01 05:20:56;;;;;;;26.23;10.70;;;4.50;1.00;;;;;;5071652;28;20384;-59
2022/12/01 05:23:27;;;;;;;25.40;11.00;;;4.50;1.00;;;;;;5071640;28;20380;-58
2022/12/01 05:25:53;;;;;;;30.33;11.50;;;4.50;1.00;;;;;;5070720;28;20464;-59
2022/12/01 05:28:19;;;;;;;25.30;10.33;;;4.90;1.00;;;;;;5071380;28;21358;-59
2022/12/01 05:30:45;;;;;;;24.02;9.65;;;4.60;1.00;;;;;;5053485;28;20395;-60
2022/12/01 05:33:11;;;;;;;24.88;11.25;;;4.50;1.00;;;;;;5068721;28;20403;-60
2022/12/01 05:35:37;;;;;;;24.35;10.50;;;5.40;1.00;;;;;;5073154;28;20406;-60
2022/12/01 05:38:03;;;;;;;25.30;10.40;;;6.20;1.00;;;;;;5065096;28;20416;-61
2022/12/01 05:40:29;;;;;;;27.42;10.80;;;6.20;1.00;;;;;;5081977;28;20398;-59
2022/12/01 05:42:56;;;;;;;22.60;9.43;;;5.10;1.00;;;;;;5083793;28;20388;-59
2022/12/01 05:45:22;;;;;;;26.53;10.87;;;4.30;1.00;;;;;;5080232;28;20394;-60
2022/12/01 05:47:47;;;;;;;23.70;10.15;;;4.20;1.00;;;;;;5076428;28;20469;-65
2022/12/01 05:50:13;;;;;;;23.75;10.73;;;4.20;1.00;;;;;;5086927;28;20394;-60
2022/12/01 05:52:39;;;;;;;26.87;9.77;;;4.30;1.00;;;;;;5074967;28;20727;-60
2022/12/01 05:55:05;;;;;;;26.33;9.60;;;4.40;1.00;;;;;;5080312;28;20501;-61
2022/12/01 05:57:32;;;;;;;23.00;9.83;;;4.40;1.00;;;;;;5062285;28;20403;-59
2022/12/01 05:59:57;;;;;;;23.67;10.20;;;4.50;1.00;;;;;;5063185;28;20398;-60
2022/12/01 06:02:25;;;;;;;21.03;9.77;;;4.50;1.00;;;;;;5064315;28;20382;-59
2022/12/01 06:04:52;;;;;;;28.08;10.77;;;4.40;1.00;;;;;;5063256;28;20401;-60
2022/12/01 06:07:18;;;;;;;29.15;11.20;;;3.80;1.00;;;;;;5070709;28;20409;-60
2022/12/01 06:09:45;;;;;;;26.40;10.52;;;4.40;1.00;;;;;;5059858;28;20400;-60
2022/12/01 06:12:11;;;;;;;27.23;11.32;;;4.40;1.00;;;;;;5069465;28;20836;-59
2022/12/01 06:14:37;;;;;;;26.60;11.65;;;4.40;1.00;;;;;;5070451;28;20384;-62
2022/12/01 06:17:02;;;;;;;26.55;11.13;;;4.40;1.00;;;;;;5067955;28;20386;-60
2022/12/01 06:19:28;;;;;;;23.07;10.47;;;4.40;1.00;;;;;;5057608;28;20439;-59
2022/12/01 06:21:53;;;;;;;26.50;10.68;;;4.40;1.00;;;;;;5058737;28;20733;-62
2022/12/01 06:24:19;;;;;;;28.30;11.00;;;5.80;1.00;;;;;;5060800;28;20384;-59
2022/12/01 06:26:45;;;;;;;23.02;9.10;;;4.30;1.00;;;;;;5070297;28;20880;-59
2022/12/01 06:29:10;;;;;;;24.73;10.00;;;4.60;1.00;;;;;;5069653;28;20859;-59
2022/12/01 06:31:36;;;;;;;27.13;10.90;;;4.00;35.70;;;;;;5070083;28;20904;-59
2022/12/01 06:34:01;;;;;;;24.97;9.60;;;4.00;99.90;;;;;;5069040;28;20392;-59
2022/12/01 06:36:27;;;;;;;23.93;10.40;;;5.80;99.90;;;;;;5068013;28;20924;-60
2022/12/01 06:38:52;;;;;;;32.43;12.50;;;4.60;99.90;;;;;;5064814;28;20423;-59
2022/12/01 06:41:18;;;;;;;32.90;11.03;;;4.20;99.90;;;;;;5069572;28;20488;-59
2022/12/01 06:43:43;;;;;;;26.40;11.03;;;4.30;80.40;;;;;;5069227;28;20396;-59
2022/12/01 06:46:09;;;;;;;23.53;10.60;;;5.10;15.60;;;;;;5065404;28;21017;-59
2022/12/01 06:48:35;;;;;;;26.02;10.52;;;4.20;43.60;;;;;;5066752;28;20399;-59
2022/12/01 06:51:01;;;;;;;25.17;10.60;;;4.30;32.10;;;;;;5068031;28;20372;-59
2022/12/01 06:53:28;;;;;;;23.42;9.73;;;4.20;10.40;;;;;;5067634;28;20387;-59
2022/12/01 06:56:00;;;;;;;24.23;10.00;;;4.20;23.30;;;;;;5068582;28;20390;-59
2022/12/01 06:58:26;;;;;;;27.10;10.48;;;4.10;75.50;;;;;;5067021;28;20407;-59
2022/12/01 07:00:52;;;;;;;25.93;10.93;;;4.10;99.90;;;;;;5068620;28;20391;-61
2022/12/01 07:03:17;;;;;;;21.90;10.03;;;4.10;99.90;;;;;;5066689;28;20432;-59
2022/12/01 07:05:43;;;;;;;25.92;11.00;;;4.10;99.90;;;;;;5062626;28;20915;-59
2022/12/01 07:08:09;;;;;;;26.27;10.87;;;3.20;99.90;;;;;;5069548;28;20383;-59
2022/12/01 07:10:34;;;;;;;32.37;11.90;;;4.10;99.90;;;;;;5061411;28;20439;-59
2022/12/01 07:13:00;;;;;;;24.60;10.90;;;5.10;99.90;;;;;;5065381;28;20449;-60
2022/12/01 07:15:27;;;;;;;25.37;11.47;;;4.20;99.90;;;;;;5065803;28;20855;-59
2022/12/01 07:17:53;;;;;;;26.10;10.70;;;4.20;99.90;;;;;;5064153;28;20881;-59
2022/12/01 07:20:19;;;;;;;20.00;9.97;;;4.20;99.90;;;;;;5066608;28;20418;-59
2022/12/01 07:22:44;;;;;;;26.05;10.20;;;4.10;99.90;;;;;;5069050;28;20407;-59
2022/12/01 07:25:10;;;;;;;25.50;11.17;;;3.90;1.00;;;;;;5068586;28;20466;-59
2022/12/01 07:27:35;;;;;;;29.10;10.03;;;4.20;1.00;;;;;;5069033;28;20565;-60
2022/12/01 07:30:01;;;;;;;26.08;10.18;;;5.60;1.00;;;;;;5066687;28;20403;-59
2022/12/01 07:32:27;;;;;;;23.87;10.80;;;4.40;99.90;;;;;;5069185;28;20391;-65
2022/12/01 07:34:52;;;;;;;24.35;9.30;;;4.50;67.70;;;;;;5064504;28;20460;-66
2022/12/01 07:37:18;;;;;;;26.83;10.33;;;4.40;54.20;;;;;;5070296;28;20776;-62
2022/12/01 07:39:43;;;;;;;24.20;8.90;;;4.40;35.30;;;;;;5072900;28;20388;-59
2022/12/01 07:42:09;;;;;;;25.27;10.50;;;4.50;95.90;;;;;;5072711;28;20381;-59
2022/12/01 07:44:34;;;;;;;26.90;11.13;;;4.20;99.90;;;;;;5068231;28;20416;-58
2022/12/01 07:47:00;;;;;;;23.42;9.55;;;4.20;99.90;;;;;;5070203;28;20380;-59
2022/12/01 07:49:26;;;;;;;24.07;10.90;;;4.20;99.90;;;;;;5073454;28;20376;-59
2022/12/01 07:51:51;;;;;;;26.45;10.23;;;4.30;99.90;;;;;;5071701;28;20483;-64
2022/12/01 07:54:19;;;;;;;23.53;9.90;;;4.40;99.90;;;;;;5054961;28;20382;-60
2022/12/01 07:56:44;;;;;;;23.98;9.98;;;4.50;99.90;;;;;;5073596;28;20386;-59
2022/12/01 07:59:11;;;;;;;29.70;10.23;;;4.60;99.90;;;;;;5052572;28;20397;-59
2022/12/01 08:01:36;;;;;;;24.75;10.77;;;6.00;99.90;;;;;;5052896;28;20863;-60
2022/12/01 08:04:02;;;;;;;25.30;10.30;;;4.40;99.90;;;;;;5053074;28;20404;-58
2022/12/01 08:06:27;;;;;;;25.45;10.18;;;4.50;99.90;;;;;;5070811;28;21361;-58
2022/12/01 08:08:54;;;;;;;27.73;10.60;;;5.40;99.90;;;;;;5068611;28;20385;-61
2022/12/01 08:11:24;;;;;;;20.23;9.13;;;4.70;58.10;;;;;;5053393;28;20493;-58
2022/12/01 08:13:51;;;;;;;25.27;10.05;;;3.50;31.30;;;;;;5060245;28;20372;-65
2022/12/01 08:16:19;;;;;;;24.60;10.38;;;5.70;19.50;;;;;;5072547;28;20860;-59
2022/12/01 08:18:46;;;;;;;24.40;9.90;;;6.40;46.70;;;;;;5067450;28;20430;-59
2022/12/01 08:21:18;;;;;;;25.17;10.75;;;6.40;14.80;;;;;;5069911;28;20501;-59
2022/12/01 08:23:44;;;;;;;27.27;10.50;;;4.60;7.50;;;;;;5061379;28;20423;-59
2022/12/01 08:26:13;;;;;;;26.23;10.80;;;4.60;1.00;;;;;;5069750;28;20869;-59
2022/12/01 08:28:39;;;;;;;24.17;10.20;;;4.60;10.60;;;;;;5072407;28;20423;-59
2022/12/01 08:31:18;;;;;;;24.75;10.73;;;4.50;43.50;;;;;;5071654;28;20383;-58
2022/12/01 08:33:44;;;;;;;26.50;11.73;;;4.40;99.90;;;;;;5071459;28;20404;-58
2022/12/01 08:36:10;;;;;;;20.40;9.23;;;4.40;99.90;;;;;;5049965;28;20484;-59
2022/12/01 08:38:35;;;;;;;26.90;10.97;;;5.30;99.90;;;;;;5037903;28;20878;-59
2022/12/01 08:41:06;;;;;;;24.33;10.13;;;4.60;99.90;;;;;;5051019;28;20457;-59
2022/12/01 08:43:32;;;;;;;25.33;10.20;;;4.60;99.90;;;;;;5052638;28;20461;-58
2022/12/01 08:46:01;;;;;;;25.35;10.57;;;5.00;99.90;;;;;;5051248;28;20386;-59
2022/12/01 08:48:30;;;;;;;24.83;9.57;;;4.40;99.90;;;;;;5052239;28;20381;-59
2022/12/01 08:51:07;;;;;;;27.50;11.17;;;4.40;99.90;;;;;;5051399;28;20389;-60
2022/12/01 08:53:34;;;;;;;24.73;11.00;;;4.40;99.90;;;;;;5052545;28;20415;-59
2022/12/01 08:56:07;;;;;;;30.08;10.80;;;4.40;99.90;;;;;;5051057;28;20410;-58
2022/12/01 08:58:33;;;;;;;23.60;10.43;;;5.10;99.90;;;;;;5050451;28;20409;-60
2022/12/01 09:01:07;;;;;;;27.20;10.48;;;4.30;99.90;;;;;;5047527;28;20481;-59
2022/12/01 09:03:34;;;;;;;25.83;11.90;;;4.40;99.90;;;;;;5048283;28;20420;-59
2022/12/01 09:06:08;;;;;;;27.05;11.68;;;4.60;99.90;;;;;;5049112;28;20449;-59
2022/12/01 09:08:35;;;;;;;23.60;10.10;;;4.70;99.90;;;;;;5049801;28;21060;-58
2022/12/01 09:11:06;;;;;;;24.92;10.65;;;4.70;95.10;;;;;;5043343;28;20394;-58
2022/12/01 09:13:33;;;;;;;22.40;9.47;;;4.80;56.10;;;;;;5045731;28;20402;-60
2022/12/01 09:16:04;;;;;;;21.50;9.23;;;4.80;6.60;;;;;;5049202;28;20373;-58
2022/12/01 09:18:30;;;;;;;26.17;9.30;;;4.70;10.80;;;;;;5050040;28;20870;-58
2022/12/01 09:20:56;;;;;;;24.10;9.83;;;4.90;24.70;;;;;;5049327;28;20448;-58
2022/12/01 09:23:23;;;;;;;24.77;10.73;;;6.00;1.00;;;;;;5049921;28;20392;-59
2022/12/01 09:25:50;;;;;;;25.08;11.43;;;4.90;1.00;;;;;;5045297;28;20408;-66
2022/12/01 09:28:19;;;;;;;21.60;9.63;;;6.70;1.00;;;;;;5050324;28;20879;-59
2022/12/01 09:30:45;;;;;;;22.67;10.32;;;6.60;1.00;;;;;;5049510;28;20390;-59
2022/12/01 09:33:12;;;;;;;27.15;11.20;;;4.90;1.00;;;;;;5049109;28;20853;-60
2022/12/01 09:35:37;;;;;;;23.10;10.07;;;6.60;1.00;;;;;;5063147;28;20461;-60
2022/12/01 09:38:04;;;;;;;22.80;9.50;;;7.00;1.00;;;;;;5069074;28;20403;-59
2022/12/01 09:40:41;;;;;;;25.45;10.57;;;6.40;1.00;;;;;;5069990;28;20388;-59
2022/12/01 09:43:21;;;;;;;26.60;10.20;;;6.20;1.00;;;;;;5067450;28;20395;-59
2022/12/01 09:45:51;;;;;;;21.83;10.25;;;5.10;1.00;;;;;;5068050;28;20380;-59
2022/12/01 09:48:29;;;;;;;24.58;10.70;;;6.30;1.00;;;;;;5069679;28;20825;-59
2022/12/01 09:50:54;;;;;;;26.67;11.05;;;5.10;1.00;;;;;;5068932;28;20471;-59
2022/12/01 09:53:24;;;;;;;25.65;10.80;;;5.20;1.00;;;;;;5066837;28;20737;-60
2022/12/01 09:55:50;;;;;;;26.00;10.70;;;6.10;1.00;;;;;;5068939;28;20392;-64
2022/12/01 09:58:25;;;;;;;24.38;10.75;;;5.30;1.00;;;;;;5068936;28;20403;-59
2022/12/01 10:00:53;;;;;;;23.48;9.93;;;6.90;1.00;;;;;;5069146;28;20388;-65
2022/12/01 10:03:27;;;;;;;28.08;10.75;;;5.30;1.00;;;;;;5069047;28;20490;-59
2022/12/01 10:06:03;;;;;;;26.70;11.55;;;5.40;1.00;;;;;;5068815;28;20749;-60
2022/12/01 10:08:33;;;;;;;22.07;9.67;;;5.20;1.00;;;;;;5066823;28;20393;-59
2022/12/01 10:11:15;;;;;;;23.10;9.97;;;6.70;1.00;;;;;;5068242;28;20375;-59
2022/12/01 10:13:40;;;;;;;26.63;10.00;;;5.10;1.00;;;;;;5065415;28;20395;-59
2022/12/01 10:16:11;;;;;;;23.50;9.57;;;5.20;1.00;;;;;;5067673;28;20449;-59
2022/12/01 10:19:01;;;;;;;24.65;10.15;;;5.30;1.00;;;;;;5065841;28;20408;-59
2022/12/01 10:21:29;;;;;;;23.95;11.38;;;5.40;1.00;;;;;;5063921;28;20403;-62
2022/12/01 10:24:29;;;;;;;24.05;10.68;;;5.40;1.00;;;;;;5067491;28;20434;-61
2022/12/01 10:27:28;;;;;;;24.83;9.98;;;5.40;1.00;;;;;;5066919;28;20383;-60
2022/12/01 10:30:05;;;;;;;24.55;9.50;;;5.40;1.00;;;;;;5066249;28;20408;-61
2022/12/01 10:32:34;;;;;;;21.17;9.23;;;5.60;1.00;;;;;;5066919;28;20935;-59
2022/12/01 10:35:00;;;;;;;27.15;11.75;;;5.50;1.00;;;;;;5067220;28;20788;-59
2022/12/01 10:37:28;;;;;;;25.30;10.10;;;5.40;1.00;;;;;;5066140;28;20380;-59
2022/12/01 10:39:55;;;;;;;24.50;10.80;;;5.40;1.00;;;;;;5067602;28;20387;-64
2022/12/01 10:42:33;;;;;;;22.65;10.27;;;5.50;1.00;;;;;;5068615;28;20375;-59
2022/12/01 10:45:02;;;;;;;23.58;10.32;;;5.50;1.00;;;;;;5064781;28;20403;-59
2022/12/01 10:47:28;;;;;;;24.23;10.80;;;5.70;1.00;;;;;;5061738;28;20446;-59
2022/12/01 10:49:55;;;;;;;21.10;9.80;;;6.10;1.00;;;;;;5065715;28;20860;-65
2022/12/01 10:52:38;;;;;;;24.80;10.45;;;5.80;1.00;;;;;;5065583;28;20767;-61
2022/12/01 10:55:22;;;;;;;22.53;9.97;;;5.90;1.00;;;;;;5065541;28;20415;-59
2022/12/01 10:57:48;;;;;;;29.23;10.93;;;5.80;1.00;;;;;;5065186;28;20494;-59
2022/12/01 11:00:31;;;;;;;19.65;9.13;;;5.90;1.00;;;;;;5066203;28;20384;-60
2022/12/01 11:02:56;;;;;;;22.60;10.30;;;5.90;1.00;;;;;;5067398;28;20413;-60
2022/12/01 11:05:32;;;;;;;23.77;10.48;;;5.90;1.00;;;;;;5068210;28;20415;-61
2022/12/01 11:07:58;;;;;;;23.20;10.13;;;5.90;99.90;;;;;;5066276;28;20395;-59
2022/12/01 11:10:32;;;;;;;22.98;9.00;;;5.90;99.90;;;;;;5067809;28;20384;-60
2022/12/01 11:13:21;;;;;;;24.00;9.90;;;5.80;99.90;;;;;;5067141;28;20391;-60
2022/12/01 11:15:53;;;;;;;23.27;10.40;;;5.70;99.90;;;;;;5066031;28;20437;-59
2022/12/01 11:18:23;;;;;;;22.48;8.90;;;5.80;99.90;;;;;;5067727;28;20876;-59
2022/12/01 11:21:08;;;;;;;21.70;9.07;;;5.70;99.90;;;;;;5067992;28;20800;-59
2022/12/01 11:23:45;;;;;;;22.65;9.23;;;5.70;99.90;;;;;;5068118;28;20386;-60
2022/12/01 11:26:13;;;;;;;25.75;9.68;;;5.70;99.90;;;;;;5061968;28;20535;-60
2022/12/01 11:28:57;;;;;;;25.05;9.70;;;7.00;99.90;;;;;;5065765;28;20448;-59
2022/12/01 11:31:49;;;;;;;20.70;9.00;;;5.50;99.90;;;;;;5066790;28;20387;-60
2022/12/01 11:34:28;;;;;;;22.27;8.93;;;5.50;99.90;;;;;;5063677;28;20432;-60
2022/12/01 11:36:57;;;;;;;24.05;9.90;;;5.60;99.90;;;;;;5062779;28;20484;-66
2022/12/01 11:39:31;;;;;;;27.58;10.32;;;6.10;1.00;;;;;;5063756;28;20413;-60
2022/12/01 11:42:03;;;;;;;19.20;8.30;;;6.90;99.90;;;;;;5064036;28;20391;-64
2022/12/01 11:44:31;;;;;;;20.48;8.82;;;5.60;99.90;;;;;;5064801;28;20893;-60
2022/12/01 11:47:12;;;;;;;19.48;8.93;;;6.70;1.00;;;;;;5064844;28;20380;-60
2022/12/01 11:49:40;;;;;;;22.15;8.15;;;5.70;99.90;;;;;;5065468;28;20384;-60
2022/12/01 11:52:22;;;;;;;23.02;8.90;;;6.20;99.90;;;;;;5062707;28;20417;-62
2022/12/01 11:55:14;;;;;;;20.33;9.60;;;5.90;99.90;;;;;;5066585;28;20387;-60
2022/12/01 11:57:45;;;;;;;21.75;8.38;;;5.80;99.90;;;;;;5021336;28;20400;-59
2022/12/01 12:00:19;;;;;;;22.70;9.40;;;5.80;99.90;;;;;;5067121;28;20428;-59
2022/12/01 12:02:47;;;;;;;22.90;9.57;;;6.10;99.90;;;;;;5066356;28;20380;-59
2022/12/01 12:05:45;;;;;;;25.17;9.00;;;5.90;99.90;;;;;;5067017;28;20415;-58
2022/12/01 12:08:21;;;;;;;22.95;8.75;;;6.00;99.90;;;;;;5066351;28;20388;-59
2022/12/01 12:10:52;;;;;;;22.80;9.30;;;5.90;99.90;;;;;;5066654;28;20395;-59
2022/12/01 12:13:28;;;;;;;20.30;9.00;;;6.80;99.90;;;;;;5067886;28;20380;-59
2022/12/01 12:16:24;;;;;;;23.57;9.87;;;6.70;99.90;;;;;;5065788;28;20464;-63
2022/12/01 12:19:01;;;;;;;24.92;10.10;;;6.10;99.90;;;;;;5065319;28;20475;-59
2022/12/01 12:21:50;;;;;;;23.63;10.60;;;6.20;99.90;;;;;;5069092;28;20431;-59
2022/12/01 12:24:54;;;;;;;23.60;11.15;;;6.20;99.90;;;;;;5067129;28;20445;-60
2022/12/01 12:27:28;;;;;;;27.15;11.38;;;6.30;99.90;;;;;;5071038;28;20384;-60
2022/12/01 12:30:05;;;;;;;24.60;10.65;;;7.20;99.90;;;;;;5070090;28;20380;-66
2022/12/01 12:32:43;;;;;;;18.45;7.38;;;6.30;99.90;;;;;;5070198;28;20402;-60
2022/12/01 12:35:53;;;;;;;24.92;9.40;;;6.10;99.90;;;;;;5070005;28;20491;-59
2022/12/01 12:38:34;;;;;;;23.10;8.88;;;6.20;99.90;;;;;;5070162;28;20411;-60
2022/12/01 12:41:11;;;;;;;31.70;11.50;;;6.40;99.90;;;;;;5072201;28;20434;-59
2022/12/01 12:44:01;;;;;;;22.15;9.88;;;6.50;99.90;;;;;;5069125;28;20411;-59
2022/12/01 12:46:55;;;;;;;22.98;10.25;;;6.50;99.90;;;;;;5069987;28;20395;-59
2022/12/01 12:49:33;;;;;;;21.33;9.23;;;6.40;99.90;;;;;;5072035;28;20737;-61
2022/12/01 12:52:09;;;;;;;23.03;9.07;;;6.30;99.90;;;;;;5070032;28;20470;-59
2022/12/01 12:54:49;;;;;;;18.83;8.30;;;6.20;99.90;;;;;;5071878;28;20575;-59
2022/12/01 12:57:29;;;;;;;24.93;9.80;;;6.30;99.90;;;;;;5071090;28;20368;-58
2022/12/01 13:00:28;;;;;;;24.00;8.90;;;6.30;99.90;;;;;;5066906;28;20411;-62
2022/12/01 13:03:18;;;;;;;32.38;13.27;;;7.40;99.90;;;;;;5011249;28;20452;-64
2022/12/01 13:05:57;;;;;;;27.45;10.07;;;6.20;99.90;;;;;;5069823;28;20737;-60
2022/12/01 13:08:46;;;;;;;26.20;11.52;;;6.10;99.90;;;;;;5071647;28;20749;-59